createdAt,value
2022-07-26T00:00:49.838Z,148153.16
2022-07-26T00:03:17.153Z,148116.41
2022-07-26T00:05:45.193Z,148116.41
2022-07-26T00:08:12.320Z,148155.63
2022-07-26T00:10:41.908Z,148167.81
2022-07-26T00:13:09.782Z,148104.19
2022-07-26T00:15:37.942Z,148123.75
2022-07-26T00:18:05.522Z,148102.94
2022-07-26T00:20:35.399Z,148133.53
2022-07-26T00:23:03.043Z,148107.84
2022-07-26T00:25:30.197Z,148055.28
2022-07-26T00:27:57.441Z,148041.81
2022-07-26T00:30:24.984Z,148087.06
2022-07-26T00:32:52.870Z,148057.69
2022-07-26T00:35:20.602Z,148033.25
2022-07-26T00:37:47.780Z,147923.16
2022-07-26T00:40:15.650Z,147999.03
2022-07-26T00:42:43.634Z,148006.34
2022-07-26T00:45:12.044Z,147896.25
2022-07-26T00:47:39.357Z,147940.31
2022-07-26T00:50:09.798Z,147886.47
2022-07-26T00:52:36.872Z,147932.91
2022-07-26T00:55:07.472Z,147884.03
2022-07-26T00:57:35.704Z,147837.53
2022-07-26T01:00:05.772Z,147862.03
2022-07-26T01:02:32.907Z,147840.00
2022-07-26T01:05:00.171Z,147824.16
2022-07-26T01:07:28.864Z,147764.22
2022-07-26T01:09:56.562Z,147824.16
2022-07-26T01:12:56.126Z,147879.16
2022-07-26T01:15:23.403Z,147835.13
2022-07-26T01:17:50.495Z,147805.81
2022-07-26T01:20:17.607Z,147810.69
2022-07-26T01:22:44.679Z,147754.44
2022-07-26T01:25:11.799Z,147707.97
2022-07-26T01:27:41.826Z,147723.91
2022-07-26T01:30:11.108Z,147723.91
2022-07-26T01:32:38.701Z,147710.44
2022-07-26T01:35:07.769Z,147700.66
2022-07-26T01:37:34.896Z,147690.84
2022-07-26T01:40:02.344Z,147659.13
2022-07-26T01:42:29.570Z,147659.13
2022-07-26T01:44:56.812Z,147615.13
2022-07-26T01:47:24.034Z,147656.66
2022-07-26T01:49:51.074Z,147634.66
2022-07-26T01:52:18.756Z,147558.94
2022-07-26T01:54:45.842Z,147588.22
2022-07-26T01:57:12.976Z,147579.69
2022-07-26T01:59:40.094Z,147593.13
2022-07-26T02:02:07.263Z,147568.69
2022-07-26T02:04:52.802Z,147561.34
2022-07-26T02:07:19.971Z,147569.91
2022-07-26T02:09:47.137Z,147546.69
2022-07-26T02:12:15.703Z,147563.81
2022-07-26T02:14:42.778Z,147474.59
2022-07-26T02:17:09.847Z,147556.47
2022-07-26T02:19:37.651Z,147588.22
2022-07-26T02:22:05.382Z,147512.53
2022-07-26T02:24:32.947Z,147488.03
2022-07-26T02:27:01.123Z,147457.53
2022-07-26T02:29:28.499Z,147458.72
2022-07-26T02:31:56.289Z,147419.63
2022-07-26T02:34:23.739Z,147395.22
2022-07-26T02:36:51.175Z,147424.50
2022-07-26T02:39:18.708Z,147395.22
2022-07-26T02:41:45.776Z,147370.81
2022-07-26T02:44:12.822Z,147362.28
2022-07-26T02:46:39.946Z,147341.50
2022-07-26T02:49:07.064Z,147320.78
2022-07-26T02:51:34.321Z,147306.09
2022-07-26T02:54:01.417Z,147248.75
2022-07-26T02:56:28.709Z,147317.09
2022-07-26T02:58:55.953Z,147295.13
2022-07-26T03:01:23.063Z,147321.97
2022-07-26T03:03:51.122Z,147292.69
2022-07-26T03:06:19.760Z,147278.00
2022-07-26T03:08:48.161Z,147301.19
2022-07-26T03:11:15.853Z,147300.00
2022-07-26T03:13:42.922Z,147314.63
2022-07-26T03:16:10.121Z,147337.81
2022-07-26T03:18:37.285Z,147398.91
2022-07-26T03:21:04.502Z,147407.47
2022-07-26T03:23:33.414Z,147457.53
2022-07-26T03:26:02.760Z,147408.66
2022-07-26T03:28:34.083Z,147341.50
2022-07-26T03:31:01.335Z,147414.75
2022-07-26T03:33:43.510Z,147474.59
2022-07-26T03:36:15.743Z,147494.22
2022-07-26T03:38:43.395Z,147512.53
2022-07-26T03:41:13.411Z,147485.59
2022-07-26T03:43:41.494Z,147532.06
2022-07-26T03:46:08.778Z,147530.84
2022-07-26T03:48:35.945Z,147539.34
2022-07-26T03:51:03.073Z,147458.72
2022-07-26T03:53:30.179Z,147544.25
2022-07-26T03:56:15.825Z,147516.16
2022-07-26T03:58:42.848Z,147495.41
2022-07-26T04:01:09.948Z,147534.47
2022-07-26T04:03:37.054Z,147524.72
2022-07-26T04:06:05.517Z,147568.69
2022-07-26T04:08:32.919Z,147599.22
2022-07-26T04:10:59.982Z,147580.88
2022-07-26T04:13:27.541Z,147527.16
2022-07-26T04:15:54.626Z,147593.13
2022-07-26T04:18:22.057Z,147635.84
2022-07-26T04:20:51.795Z,147620.00
2022-07-26T04:23:18.845Z,147622.47
2022-07-26T04:25:46.050Z,147607.75
2022-07-26T04:28:13.471Z,147609.03
2022-07-26T04:30:41.367Z,147651.75
2022-07-26T04:33:08.860Z,147637.13
2022-07-26T04:35:36.266Z,147644.41
2022-07-26T04:38:04.144Z,147634.66
2022-07-26T04:40:33.611Z,147655.44
2022-07-26T04:43:01.626Z,147632.22
2022-07-26T04:45:29.601Z,147646.88
2022-07-26T04:47:57.302Z,147704.28
2022-07-26T04:50:24.934Z,147620.00
2022-07-26T04:52:52.592Z,147709.19
2022-07-26T04:55:20.397Z,147685.97
2022-07-26T04:57:48.003Z,147703.06
2022-07-26T05:00:22.541Z,147693.31
2022-07-26T05:02:53.455Z,147712.84
2022-07-26T05:05:22.217Z,147717.78
2022-07-26T05:07:52.333Z,147655.44
2022-07-26T05:10:20.371Z,147690.84
2022-07-26T05:12:48.081Z,147634.66
2022-07-26T05:15:15.725Z,147731.22
2022-07-26T05:17:43.627Z,147695.78
2022-07-26T05:20:14.927Z,147681.06
2022-07-26T05:22:42.783Z,147715.31
2022-07-26T05:25:10.064Z,147734.91
2022-07-26T05:27:37.259Z,147739.78
2022-07-26T05:30:04.619Z,147766.69
2022-07-26T05:32:31.643Z,147774.03
2022-07-26T05:34:58.701Z,147775.25
2022-07-26T05:37:25.815Z,147778.91
2022-07-26T05:39:53.057Z,147769.16
2022-07-26T05:42:20.082Z,147659.13
2022-07-26T05:44:47.126Z,147712.84
2022-07-26T05:47:14.346Z,147719.03
2022-07-26T05:49:41.401Z,147730.00
2022-07-26T05:52:09.293Z,147736.13
2022-07-26T05:54:36.462Z,147700.66
2022-07-26T05:57:04.354Z,147722.66
2022-07-26T05:59:32.131Z,147705.53
2022-07-26T06:01:59.405Z,147692.09
2022-07-26T06:04:27.431Z,147703.06
2022-07-26T06:06:55.322Z,147688.44
2022-07-26T06:09:24.802Z,147720.25
2022-07-26T06:11:52.272Z,147700.66
2022-07-26T06:14:20.478Z,147719.03
2022-07-26T06:16:48.340Z,147630.97
2022-07-26T06:19:15.575Z,147695.78
2022-07-26T06:21:42.942Z,147741.00
2022-07-26T06:24:10.635Z,147722.66
2022-07-26T06:26:38.002Z,147764.22
2022-07-26T06:29:05.199Z,147764.22
2022-07-26T06:31:32.464Z,147793.56
2022-07-26T06:33:59.553Z,147805.81
2022-07-26T06:36:30.507Z,147813.13
2022-07-26T06:38:58.719Z,147815.59
2022-07-26T06:41:25.924Z,147777.66
2022-07-26T06:43:52.985Z,147851.00
2022-07-26T06:46:21.102Z,147915.84
2022-07-26T06:48:53.094Z,147925.59
2022-07-26T06:51:24.208Z,147928.03
2022-07-26T06:53:51.708Z,147898.69
2022-07-26T06:56:19.699Z,148038.13
2022-07-26T06:58:47.074Z,148033.25
2022-07-26T07:01:55.430Z,148084.59
2022-07-26T07:04:01.622Z,148173.97
2022-07-26T07:06:28.713Z,148209.47
2022-07-26T07:08:55.775Z,148236.34
2022-07-26T07:11:23.670Z,148232.72
2022-07-26T07:13:50.803Z,148238.81
2022-07-26T07:16:17.907Z,148207.00
2022-07-26T07:18:44.973Z,148160.50
2022-07-26T07:21:12.010Z,148177.66
2022-07-26T07:23:39.023Z,148177.66
2022-07-26T07:26:06.215Z,148074.81
2022-07-26T07:28:38.232Z,148057.69
2022-07-26T07:31:05.914Z,148012.47
2022-07-26T07:33:43.849Z,148021.00
2022-07-26T07:36:20.827Z,147925.59
2022-07-26T07:38:49.337Z,147901.13
2022-07-26T07:41:16.571Z,147956.19
2022-07-26T07:43:43.607Z,147978.22
2022-07-26T07:46:10.707Z,148033.25
2022-07-26T07:48:42.242Z,148013.69
2022-07-26T07:51:13.787Z,147999.03
2022-07-26T07:53:40.831Z,148013.69
2022-07-26T07:56:08.337Z,147937.84
2022-07-26T07:58:35.445Z,147870.59
2022-07-26T08:01:02.902Z,147950.09
2022-07-26T08:03:38.407Z,147996.56
2022-07-26T08:06:08.279Z,148023.47
2022-07-26T08:08:36.800Z,147991.66
2022-07-26T08:11:04.939Z,147985.56
2022-07-26T08:13:35.266Z,147940.31
2022-07-26T08:16:04.994Z,147803.34
2022-07-26T08:18:39.608Z,147881.56
2022-07-26T08:21:16.126Z,147873.00
2022-07-26T08:23:43.290Z,147830.25
2022-07-26T08:26:10.543Z,147898.69
2022-07-26T08:28:47.363Z,147913.38
2022-07-26T08:31:15.488Z,147926.81
2022-07-26T08:33:46.171Z,147988.00
2022-07-26T08:36:17.159Z,147913.38
2022-07-26T08:38:44.978Z,147923.16
2022-07-26T08:41:16.675Z,147981.88
2022-07-26T08:43:52.856Z,148049.16
2022-07-26T08:46:27.341Z,148104.19
2022-07-26T08:48:57.935Z,148118.88
2022-07-26T08:51:26.693Z,148094.38
2022-07-26T08:54:02.164Z,148082.19
2022-07-26T08:56:36.425Z,148154.41
2022-07-26T08:59:19.728Z,148127.44
2022-07-26T09:01:58.518Z,148209.47
2022-07-26T09:04:43.168Z,148220.47
2022-07-26T09:07:17.477Z,148258.38
2022-07-26T09:10:00.453Z,148339.16
2022-07-26T09:12:28.907Z,148457.97
2022-07-26T09:14:57.137Z,148531.41
2022-07-26T09:17:36.822Z,148493.44
2022-07-26T09:20:13.747Z,148544.94
2022-07-26T09:23:03.607Z,148566.94
2022-07-26T09:25:39.290Z,148598.78
2022-07-26T09:28:24.950Z,148541.25
2022-07-26T09:30:58.004Z,148427.34
2022-07-26T09:33:25.449Z,148435.91
2022-07-26T09:36:02.714Z,148412.66
2022-07-26T09:38:43.021Z,148358.78
2022-07-26T09:41:24.027Z,148314.66
2022-07-26T09:43:53.983Z,148189.84
2022-07-26T09:46:27.962Z,148290.19
2022-07-26T09:49:12.314Z,148226.56
2022-07-26T09:51:42.235Z,148308.56
2022-07-26T09:54:12.345Z,148334.28
2022-07-26T09:56:44.507Z,148407.75
2022-07-26T09:59:14.149Z,148442.03
2022-07-26T10:01:41.890Z,148598.78
2022-07-26T10:04:09.193Z,148686.97
2022-07-26T10:06:36.879Z,148728.72
2022-07-26T10:09:04.936Z,148573.09
2022-07-26T10:11:41.570Z,148513.06
2022-07-26T10:14:34.484Z,148380.81
2022-07-26T10:17:21.906Z,148362.47
2022-07-26T10:19:58.414Z,148319.56
2022-07-26T10:22:34.218Z,148276.72
2022-07-26T10:25:33.578Z,148291.41
2022-07-26T10:28:00.692Z,148339.16
2022-07-26T10:30:34.207Z,148380.81
2022-07-26T10:33:13.484Z,148393.03
2022-07-26T10:35:44.727Z,148406.50
2022-07-26T10:38:24.067Z,148535.06
2022-07-26T10:41:08.919Z,148544.94
2022-07-26T10:43:41.228Z,148464.06
2022-07-26T10:46:12.179Z,148498.31
2022-07-26T10:48:59.355Z,148444.50
2022-07-26T10:51:28.366Z,148446.91
2022-07-26T10:54:10.229Z,148434.69
2022-07-26T10:56:38.349Z,148505.69
2022-07-26T10:59:06.304Z,148571.84
2022-07-26T11:01:42.072Z,148613.47
2022-07-26T11:04:22.476Z,148655.16
2022-07-26T11:06:49.831Z,148657.59
2022-07-26T11:09:21.163Z,148778.91
2022-07-26T11:11:48.805Z,148767.88
2022-07-26T11:14:17.807Z,148831.59
2022-07-26T11:16:52.236Z,148810.75
2022-07-26T11:19:20.765Z,148766.69
2022-07-26T11:21:54.900Z,148732.34
2022-07-26T11:24:22.235Z,148709.03
2022-07-26T11:26:49.571Z,148772.78
2022-07-26T11:29:26.508Z,148729.91
2022-07-26T11:32:17.777Z,148740.94
2022-07-26T11:34:46.394Z,148739.72
2022-07-26T11:37:14.199Z,148718.81
2022-07-26T11:39:41.209Z,148674.75
2022-07-26T11:42:10.133Z,148678.44
2022-07-26T11:44:37.787Z,148727.44
2022-07-26T11:47:17.428Z,148696.81
2022-07-26T11:50:09.238Z,148834.03
2022-07-26T11:52:32.201Z,148922.34
2022-07-26T11:54:59.541Z,148902.66
2022-07-26T11:57:31.158Z,148934.59
2022-07-26T11:59:59.528Z,148910.09
2022-07-26T12:02:28.442Z,148919.88
2022-07-26T12:05:14.754Z,148921.09
2022-07-26T12:08:04.004Z,148946.84
2022-07-26T12:10:31.451Z,148894.13
2022-07-26T12:13:08.650Z,148885.53
2022-07-26T12:15:52.951Z,148896.56
2022-07-26T12:18:25.134Z,148887.97
2022-07-26T12:21:04.420Z,148881.84
2022-07-26T12:23:46.053Z,148800.97
2022-07-26T12:26:25.166Z,148754.41
2022-07-26T12:28:53.724Z,148753.19
2022-07-26T12:31:33.145Z,148775.25
2022-07-26T12:34:00.421Z,148772.78
2022-07-26T12:36:29.899Z,148802.22
2022-07-26T12:38:58.890Z,148832.81
2022-07-26T12:41:32.707Z,148836.50
2022-07-26T12:43:59.991Z,148836.50
2022-07-26T12:46:27.168Z,148835.28
2022-07-26T12:48:59.721Z,148814.44
2022-07-26T12:51:27.461Z,148853.69
2022-07-26T12:53:54.717Z,148914.97
2022-07-26T12:56:21.735Z,148885.53
2022-07-26T12:58:48.782Z,148934.59
2022-07-26T13:01:16.692Z,149062.06
2022-07-26T13:03:44.387Z,149225.25
2022-07-26T13:06:12.614Z,149216.66
2022-07-26T13:08:40.687Z,149150.41
2022-07-26T13:11:07.725Z,149101.38
2022-07-26T13:13:34.896Z,149049.81
2022-07-26T13:16:01.923Z,149063.28
2022-07-26T13:18:28.965Z,149002.00
2022-07-26T13:20:56.753Z,149030.19
2022-07-26T13:23:26.868Z,148938.25
2022-07-26T13:25:54.117Z,148954.22
2022-07-26T13:28:21.696Z,148845.09
2022-07-26T13:30:48.780Z,148789.94
2022-07-26T13:33:17.516Z,148682.06
2022-07-26T13:35:44.539Z,148647.78
2022-07-26T13:38:11.631Z,148586.56
2022-07-26T13:40:38.693Z,148546.16
2022-07-26T13:43:06.070Z,148510.59
2022-07-26T13:45:33.098Z,148540.00
2022-07-26T13:48:00.188Z,148505.69
2022-07-26T13:50:28.147Z,148478.75
2022-07-26T13:52:56.582Z,148558.38
2022-07-26T13:55:25.394Z,148552.25
2022-07-26T13:57:56.950Z,148530.16
2022-07-26T14:00:25.559Z,148544.94
2022-07-26T14:02:52.659Z,148454.28
2022-07-26T14:05:20.689Z,148444.50
2022-07-26T14:07:47.717Z,148515.47
2022-07-26T14:10:15.066Z,148503.22
2022-07-26T14:12:42.414Z,148471.44
2022-07-26T14:15:14.090Z,148442.03
2022-07-26T14:17:46.969Z,148527.75
2022-07-26T14:20:14.764Z,148464.06
2022-07-26T14:22:41.819Z,148459.16
2022-07-26T14:25:09.234Z,148437.13
2022-07-26T14:27:36.278Z,148440.81
2022-07-26T14:30:04.646Z,148413.88
2022-07-26T14:32:31.768Z,148341.59
2022-07-26T14:34:58.826Z,148364.88
2022-07-26T14:37:41.780Z,148369.78
2022-07-26T14:40:14.700Z,148363.69
2022-07-26T14:42:42.106Z,148324.50
2022-07-26T14:45:10.131Z,148372.25
2022-07-26T14:47:37.942Z,148309.78
2022-07-26T14:50:07.837Z,148274.31
2022-07-26T14:52:44.023Z,148210.69
2022-07-26T14:55:11.789Z,148371.03
2022-07-26T14:57:40.336Z,148378.34
2022-07-26T15:00:13.509Z,148429.75
2022-07-26T15:02:45.555Z,148464.06
2022-07-26T15:05:13.872Z,148569.41
2022-07-26T15:07:42.086Z,148699.22
2022-07-26T15:10:11.419Z,148797.28
2022-07-26T15:12:39.174Z,148883.06
2022-07-26T15:15:08.409Z,148948.06
2022-07-26T15:17:36.102Z,148934.59
2022-07-26T15:20:05.161Z,149052.28
2022-07-26T15:22:32.288Z,149094.00
2022-07-26T15:24:59.314Z,149284.13
2022-07-26T15:27:26.333Z,149319.72
2022-07-26T15:29:53.435Z,149278.00
2022-07-26T15:32:21.211Z,149057.19
2022-07-26T15:34:48.631Z,149090.31
2022-07-26T15:37:15.647Z,149184.75
2022-07-26T15:39:42.726Z,149197.00
2022-07-26T15:42:10.095Z,149232.56
2022-07-26T15:44:41.038Z,149040.00
2022-07-26T15:47:08.608Z,149166.38
2022-07-26T15:49:40.192Z,149168.78
2022-07-26T15:52:10.603Z,149230.16
2022-07-26T15:54:38.317Z,149179.84
2022-07-26T15:57:05.332Z,149199.47
2022-07-26T15:59:32.366Z,149215.38
2022-07-26T16:01:59.552Z,149179.84
2022-07-26T16:04:26.630Z,149206.84
2022-07-26T16:06:53.631Z,149103.81
2022-07-26T16:09:20.701Z,148934.59
2022-07-26T16:11:49.977Z,148900.25
2022-07-26T16:14:17.486Z,148887.97
2022-07-26T16:16:45.335Z,148837.72
2022-07-26T16:19:13.013Z,148772.78
2022-07-26T16:21:40.769Z,148851.19
2022-07-26T16:24:08.256Z,148906.41
2022-07-26T16:26:35.680Z,148912.56
2022-07-26T16:29:04.405Z,148971.34
2022-07-26T16:31:32.915Z,148932.16
2022-07-26T16:34:00.428Z,148924.78
2022-07-26T16:36:27.778Z,148968.94
2022-07-26T16:38:54.815Z,149383.50
2022-07-26T16:41:21.842Z,149734.69
2022-07-26T16:43:49.563Z,149502.59
2022-07-26T16:46:17.379Z,149427.75
2022-07-26T16:48:44.516Z,149297.63
2022-07-26T16:51:13.387Z,149008.13
2022-07-26T16:53:41.121Z,148847.50
2022-07-26T16:56:09.023Z,148836.50
2022-07-26T16:58:37.494Z,148749.50
2022-07-26T17:01:04.586Z,148650.22
2022-07-26T17:03:31.736Z,148677.19
2022-07-26T17:06:02.911Z,148640.44
2022-07-26T17:08:33.236Z,148503.22
2022-07-26T17:11:00.278Z,148520.38
2022-07-26T17:13:27.332Z,148527.75
2022-07-26T17:15:54.407Z,148446.91
2022-07-26T17:18:21.880Z,148444.50
2022-07-26T17:20:48.968Z,148444.50
2022-07-26T17:23:18.270Z,148418.75
2022-07-26T17:25:45.552Z,148431.03
2022-07-26T17:28:12.766Z,148461.59
2022-07-26T17:30:39.909Z,148410.19
2022-07-26T17:33:07.039Z,148402.88
2022-07-26T17:35:34.365Z,148422.44
2022-07-26T17:38:01.376Z,148391.81
2022-07-26T17:40:31.486Z,148412.66
2022-07-26T17:42:59.921Z,148402.88
2022-07-26T17:45:27.351Z,148349.00
2022-07-26T17:47:54.539Z,148329.38
2022-07-26T17:50:38.424Z,148360.00
2022-07-26T17:53:05.844Z,148358.78
2022-07-26T17:55:32.989Z,148402.88
2022-07-26T17:58:00.536Z,148393.03
2022-07-26T18:00:29.377Z,148352.69
2022-07-26T18:02:57.312Z,148353.91
2022-07-26T18:05:32.040Z,148356.31
2022-07-26T18:08:01.209Z,148270.63
2022-07-26T18:10:28.374Z,148229.03
2022-07-26T18:12:55.893Z,148209.47
2022-07-26T18:15:22.975Z,148156.84
2022-07-26T18:17:49.998Z,148127.44
2022-07-26T18:20:17.021Z,148159.31
2022-07-26T18:22:45.689Z,148101.75
2022-07-26T18:25:13.101Z,148038.13
2022-07-26T18:27:40.267Z,148109.09
2022-07-26T18:30:07.661Z,148067.50
2022-07-26T18:32:34.992Z,148063.84
2022-07-26T18:35:02.239Z,148091.97
2022-07-26T18:37:29.354Z,148065.03
2022-07-26T18:39:57.985Z,148010.00
2022-07-26T18:42:25.837Z,148012.47
2022-07-26T18:44:52.867Z,147978.22
2022-07-26T18:47:19.887Z,147954.97
2022-07-26T18:49:47.021Z,148025.94
2022-07-26T18:52:14.690Z,148021.00
2022-07-26T18:54:41.943Z,147969.66
2022-07-26T18:57:08.937Z,147942.75
2022-07-26T18:59:36.034Z,147964.75
2022-07-26T19:02:03.991Z,147945.22
2022-07-26T19:04:31.118Z,147948.88
2022-07-26T19:06:58.190Z,147929.25
2022-07-26T19:09:25.246Z,147929.25
2022-07-26T19:11:52.328Z,147859.56
2022-07-26T19:14:19.347Z,147855.88
2022-07-26T19:16:46.405Z,147871.81
2022-07-26T19:19:13.862Z,147854.69
2022-07-26T19:21:45.230Z,147862.03
2022-07-26T19:24:12.661Z,147851.00
2022-07-26T19:26:39.758Z,147813.13
2022-07-26T19:29:07.101Z,147791.09
2022-07-26T19:31:34.212Z,147793.56
2022-07-26T19:34:01.321Z,147769.16
2022-07-26T19:36:28.320Z,147771.56
2022-07-26T19:38:56.966Z,147778.91
2022-07-26T19:41:24.558Z,147771.56
2022-07-26T19:43:51.648Z,147789.91
2022-07-26T19:46:19.015Z,147750.81
2022-07-26T19:48:46.108Z,147758.13
2022-07-26T19:51:13.183Z,147771.56
2022-07-26T19:53:40.401Z,147783.81
2022-07-26T19:56:07.822Z,147764.22
2022-07-26T19:58:34.954Z,147752.03
2022-07-26T20:01:02.315Z,147766.69
2022-07-26T20:03:29.386Z,147774.03
2022-07-26T20:05:57.724Z,147766.69
2022-07-26T20:08:25.272Z,147752.03
2022-07-26T20:10:52.540Z,147744.66
2022-07-26T20:13:19.617Z,147671.31
2022-07-26T20:15:47.336Z,147705.53
2022-07-26T20:18:14.414Z,147683.53
2022-07-26T20:20:41.459Z,147683.53
2022-07-26T20:23:10.948Z,147679.88
2022-07-26T20:25:38.004Z,147662.75
2022-07-26T20:28:05.288Z,147634.66
2022-07-26T20:30:32.408Z,147637.13
2022-07-26T20:32:59.515Z,147629.75
2022-07-26T20:35:26.688Z,147629.75
2022-07-26T20:37:53.710Z,147560.16
2022-07-26T20:40:21.166Z,147612.66
2022-07-26T20:42:50.209Z,147628.56
2022-07-26T20:45:17.997Z,147620.00
2022-07-26T20:47:45.002Z,147632.22
2022-07-26T20:50:12.638Z,147621.22
2022-07-26T20:52:40.242Z,147607.75
2022-07-26T20:55:08.081Z,147576.00
2022-07-26T20:57:35.591Z,147573.59
2022-07-26T21:00:06.516Z,147562.56
2022-07-26T21:02:33.715Z,147566.25
2022-07-26T21:05:00.978Z,147545.50
2022-07-26T21:07:58.414Z,147463.63
2022-07-26T21:10:15.464Z,147502.72
2022-07-26T21:12:42.650Z,147517.41
2022-07-26T21:15:10.316Z,147448.97
2022-07-26T21:17:37.846Z,147495.41
2022-07-26T21:20:05.944Z,147489.28
2022-07-26T21:22:33.406Z,147475.84
2022-07-26T21:25:00.441Z,147444.09
2022-07-26T21:27:27.476Z,147469.69
2022-07-26T21:29:54.526Z,147464.81
2022-07-26T21:32:21.560Z,147469.69
2022-07-26T21:34:48.701Z,147470.91
2022-07-26T21:37:16.171Z,147451.38
2022-07-26T21:39:43.229Z,147463.63
2022-07-26T21:42:10.260Z,147463.63
2022-07-26T21:44:37.297Z,147466.03
2022-07-26T21:47:05.792Z,147444.09
2022-07-26T21:49:33.539Z,147436.75
2022-07-26T21:52:00.767Z,147424.50
2022-07-26T21:54:27.918Z,147405.00
2022-07-26T21:56:54.954Z,147401.31
2022-07-26T21:59:22.186Z,147405.00
2022-07-26T22:01:49.326Z,147407.47
2022-07-26T22:04:17.792Z,147407.47
2022-07-26T22:06:44.821Z,147397.66
2022-07-26T22:09:12.123Z,147375.72
2022-07-26T22:11:39.530Z,147341.50
2022-07-26T22:14:08.316Z,147343.97
2022-07-26T22:16:35.688Z,147354.94
2022-07-26T22:19:03.073Z,147363.47
2022-07-26T22:21:30.150Z,147381.78
2022-07-26T22:23:57.216Z,147375.72
2022-07-26T22:26:27.510Z,147354.94
2022-07-26T22:28:54.530Z,147361.03
2022-07-26T22:31:21.674Z,147350.03
2022-07-26T22:33:49.262Z,147304.88
2022-07-26T22:36:17.670Z,147379.34
2022-07-26T22:38:46.140Z,147400.09
2022-07-26T22:41:13.146Z,147354.94
2022-07-26T22:43:40.451Z,147348.84
2022-07-26T22:46:07.638Z,147358.59
2022-07-26T22:48:38.363Z,147324.41
2022-07-26T22:51:06.022Z,147372.03
2022-07-26T22:53:33.030Z,147326.84
2022-07-26T22:56:00.061Z,147367.16
2022-07-26T22:58:27.106Z,147365.94
2022-07-26T23:00:54.239Z,147343.97
2022-07-26T23:03:21.819Z,147363.47
2022-07-26T23:05:49.944Z,147359.81
2022-07-26T23:11:05.242Z,147350.03
2022-07-26T23:13:32.341Z,147334.19
2022-07-26T23:16:01.131Z,147332.94
2022-07-26T23:18:30.567Z,147314.63
2022-07-26T23:20:57.593Z,147323.19
2022-07-26T23:23:29.286Z,147289.03
2022-07-26T23:25:58.801Z,147302.47
2022-07-26T23:28:36.669Z,147324.41
2022-07-26T23:31:10.821Z,147336.63
2022-07-26T23:33:51.539Z,147312.22
2022-07-26T23:36:22.466Z,147236.47
2022-07-26T23:38:49.519Z,147306.09
2022-07-26T23:41:16.698Z,147312.22
2022-07-26T23:43:43.892Z,147317.09
2022-07-26T23:46:10.973Z,147317.09
2022-07-26T23:48:38.122Z,147320.78
2022-07-26T23:51:05.339Z,147326.84
2022-07-26T23:53:32.354Z,147363.47
2022-07-26T23:55:59.435Z,147339.06
2022-07-26T23:58:26.486Z,147330.53
